RESULTATS »

INSCRITS PRESENTATS ACABEN RETIRATS DESQUALIFICATS DIST. TRAM 1 DIST. TRAM 2 DIST. TRAM 3 TEMP. EXT TEMP. AIGUA
361 331 29 1 6 20 3 0 0

CLASSIFICACIÓ

MASCULÍ FEMENÍ CATEGORIA CLUBS (MASCULINA) CLUBS (FEMENINA) INDIVIDUALS GRUPS D'EDAT

CATEGORIA: JNM
LLOCDORSALNOMCLUBCAT.T.META| P.Tram 1 || P.Tram 2 |Km/hTEMPS| P.Tram 3 |PARC_1PARC_2
1 2092ELOI CABEZAS GARCIACLUB MEDINA TRIATLOJNM01:39:152200:21:345901:09:1417.3301:30:481500:08:270:00:000:00:00
2 7059MARC MASCARILL PLADEVEYAFEECJNM01:47:235800:23:1610501:15:0915.9701:38:254200:08:580:00:000:00:00
3 6253ALBERT MASMITJÀ MARTÍNEZLLICENCIA DE DIAJNM02:01:5421200:27:0817501:24:3414.1901:51:4214400:10:120:00:000:00:00
4 6204ROGER EMBID LAZAROFEECJNM02:03:2412900:25:1520501:27:3713.7001:52:5217600:10:320:00:000:00:00
CATEGORIA: SUB23M
LLOCDORSALNOMCLUBCAT.T.META| P.Tram 1 || P.Tram 2 |Km/hTEMPS| P.Tram 3 |PARC_1PARC_2
1 3894MARC CASANOVA SOLAC.N. REUS PLOMSSUB23M01:25:28600:20:27500:57:1320.9701:17:40100:07:480:00:000:00:00
2 5890ÈRIC GAY JIMÉNEZCLUB ATLETIC TORELLO - TRSUB23M01:35:592000:21:323701:05:4718.2401:27:192700:08:400:00:000:00:00
3 2245JOSEP ORIOL ABANTE ALERTTOT VICI EN BICI CLUB ESPSUB23M01:44:109800:24:136701:10:3417.0101:34:477300:09:230:00:000:00:00
4 7004ERIC ESCOBAR FERNANDEZFEECSUB23M01:46:319400:24:087701:11:1916.8301:35:2721800:11:040:00:000:00:00
5 921PAU QUINTANAS PORTCLUB NATACIO BANYOLESSUB23M01:50:138000:23:5810601:15:1015.9601:39:0821900:11:050:00:000:00:00
6 5404AMÓS VIEDMA ALONSOCLUB TRIATLO BADIA DEL VASUB23M01:51:416400:23:2312601:18:1215.3501:41:3513200:10:060:00:000:00:00
7 7070SANTIAGO AGUSTI BRUGAROLALLICENCIA DE DIASUB23M01:59:5717300:26:1016401:23:3914.3501:49:4913500:10:080:00:000:00:00
8 5405MIGUEL TRIGUERO MOLINACLUB TRIATLO BADIA DEL VASUB23M02:02:125200:23:0222301:29:3813.3901:52:408500:09:320:00:000:00:00
9 6283ALBERT PUIG GARRICHLLICENCIA DE DIASUB23M02:04:5919400:26:3920401:27:2313.7301:54:0220900:10:570:00:000:00:00
10 6208XAVI BONILLA GONGORALLICENCIA DE DIASUB23M02:08:3726700:28:4619901:27:0013.7901:55:4630500:12:510:00:000:00:00
11 6261JAVIER SANCHEZLLICENCIA DE DIASUB23M02:16:0629400:29:5525001:33:0312.9002:02:5830800:13:080:00:000:00:00
12 6249SVEN RICKMER SUDHOFFLLICENCIA DE DIASUB23M02:32:4728500:29:2632701:49:4610.9302:19:1231400:13:350:00:000:00:00
CATEGORIA: V1M
LLOCDORSALNOMCLUBCAT.T.META| P.Tram 1 || P.Tram 2 |Km/hTEMPS| P.Tram 3 |PARC_1PARC_2
1 1265ALBERT CAMPS SERRAT-BIKES CLUB TRIATLOV1M01:26:00100:20:04800:57:2720.8901:17:311800:08:290:00:000:00:00
2 261ALBERTO JIMENEZ HERNANDEZCLUB MEDINA TRIATLOV1M01:31:421800:21:271701:02:0719.3201:23:34800:08:080:00:000:00:00
3 776MARC REAL GARCIAC.E. TRIBIKE CABRILSV1M01:31:553700:22:161501:01:1119.6101:23:271700:08:280:00:000:00:00
4 5967LLUÍS FIGOLS MORALCLUB TRIATLO LLUÇANESV1M01:32:201200:21:031801:02:2319.2401:23:263600:08:540:00:000:00:00
5 1154TONI CASALS CASTELLARCN VIC-ETBV1M01:33:172600:21:472101:03:0919.0001:24:561200:08:210:00:000:00:00
6 244JOSEP A. PEREZ MARINC. TRI. GRANOLLERSV1M01:34:292800:21:482601:03:4818.8101:25:363500:08:530:00:000:00:00
7 2808PEDRO J. OLIVEROS OLIVEROC. TRI. GRANOLLERSV1M01:37:583800:22:194101:06:1718.1001:28:367200:09:220:00:000:00:00
8 1758ANTONIO JIMENEZ ESTRADASOC ATLETICA CORBERAV1M01:38:425700:23:143901:06:1418.1201:29:286300:09:140:00:000:00:00
9 709GERMÀ BARROSO I PUJOLINDEPENDENTV1M01:39:214700:22:444901:07:3417.7601:30:184900:09:030:00:000:00:00
10 374DOMINGO ROIG VAZQUEZDISTANCE LA SALLEV1M01:39:573300:22:125801:09:0317.3801:31:152800:08:420:00:000:00:00
11 2447GREGORY FIERENSCERDANYOLA CHV1M01:40:038300:24:014201:06:3518.0201:30:367700:09:270:00:000:00:00
12 2273FRANCESC PADRO BAROT-BIKES CLUB TRIATLOV1M01:42:2610800:24:445101:07:4817.7001:32:3211600:09:540:00:000:00:00
13 1259RICARD VERDAGUER GARCIADISTANCE LA SALLEV1M01:43:092300:21:359101:13:0716.4101:34:421600:08:270:00:000:00:00
14 7087DANIEL PEREZ MUÑOZFEECV1M01:43:498600:24:037201:10:4016.9801:34:435100:09:060:00:000:00:00
15 5910TONI ROQUE PUIGTRIATLO TERRASSASPORTS-CIV1M01:44:218200:23:596601:10:3317.0101:34:3210800:09:490:00:000:00:00
16 2673OSCAR RAMON IBAÑEZCLUB TRIATLO LLEIDA V1M01:47:4217100:26:097401:11:0516.8801:37:1417200:10:280:00:000:00:00
17 1598FERRAN VINYALS CORNELLACLUB NATACIO MINORISAV1M01:47:4910500:24:349501:14:0216.2101:38:366200:09:130:00:000:00:00
18 4762RAFAEL NAVARRO ALVAREZWEFEEL TEAMV1M01:48:389900:24:1310301:15:0315.9901:39:167100:09:220:00:000:00:00
19 5774FRANCISCO RAFAEL TRENADO CLUB NATACIO RUBIV1M01:48:4710100:24:2210201:14:5716.0101:39:197900:09:280:00:000:00:00
20 2848GABRIEL BARRIOS HERNANDEZDISTANCE LA SALLEV1M01:49:394000:22:2112101:17:1515.5301:39:3612900:10:030:00:000:00:00
21 7046SALVA LAO. SÁNCHEZLLICENCIA DE DIAV1M01:50:199700:24:1211901:16:5015.6201:41:026400:09:170:00:000:00:00
22 2296IGNASI PIJUAN CANALSCLUB TRIATLO LLEIDA V1M01:50:3912100:25:0010801:15:1315.9501:40:1316800:10:260:00:000:00:00
23 5545MARC SABATE RIUSSOC ATLETICA CORBERAV1M01:50:5713700:25:2411101:15:2315.9201:40:4713900:10:100:00:000:00:00
24 6211JOSE VARELA GARCIALLICENCIA DE DIAV1M01:51:198800:24:0412501:18:1115.3501:42:155000:09:040:00:000:00:00
25 435CARLOS MENDEZ VILLALVILLASOC ATLETICA CORBERAV1M01:51:2216100:25:5810401:15:0615.9801:41:0415400:10:180:00:000:00:00
26 1258ALBERT JIMENEZ ESTRADASOC ATLETICA CORBERAV1M01:51:5316000:25:5710901:15:1515.9501:41:1218500:10:410:00:000:00:00
27 301LLUIS FIGUERAS CASANOVASCLUB CICLISTA BANYOLESV1M01:52:1418000:26:2510101:14:5316.0201:41:1820700:10:560:00:000:00:00
28 7038CARLOS ESTEBAN GUZMANLLICENCIA DE DIAV1M01:53:2510000:24:2112301:17:4915.4201:42:1023400:11:150:00:000:00:00
29 2223PABLO VILLAJOS PUNZANOCERDANYOLA CHV1M01:53:4416800:26:0812201:17:3715.4601:43:4512300:09:590:00:000:00:00
30 3414MIQUEL CIRERA PLANASDISTANCE LA SALLEV1M01:55:1118800:26:3512701:18:1615.3301:44:5116200:10:200:00:000:00:00
31 2111MANUEL FERNANDEZ CORELLAINDEPENDENTV1M01:56:0012200:25:0214401:20:4814.8501:45:5013800:10:100:00:000:00:00
32 6207CESAR AVELLANEDA LOPEZFEECV1M01:56:1011400:24:5415201:22:1514.5901:47:094600:09:010:00:000:00:00
33 7063JUANMA GUEVARA RAMONFEECV1M01:57:1013500:25:2314701:21:3814.7001:47:0113600:10:090:00:000:00:00
34 7024JUAN MANUEL MUÑOZ EGEALLICENCIA DE DIAV1M01:57:5121000:27:0613801:19:5315.0201:46:5919900:10:520:00:000:00:00
35 6205RAMON PUJOL DANOTFEECV1M01:59:0916300:26:0015701:23:1714.4101:49:1711300:09:520:00:000:00:00
36 3463MIGUEL CASTILLO QUESADACN VIC-ETBV1M01:59:4418200:26:2715601:22:5914.4601:49:2615500:10:180:00:000:00:00
37 456JOSE LUIS BALLESTER CANTODISTANCE LA SALLEV1M02:00:0817000:26:0916701:24:0114.2801:50:1012100:09:580:00:000:00:00
38 7045JORDI LUCIA OLIVERASLLICENCIA DE DIAV1M02:01:3324400:28:0116801:24:0414.2701:52:058100:09:280:00:000:00:00
39 2573CARLOS ORDOÑEZ MORILLODISTANCE LA SALLEV1M02:01:4019700:26:4517701:24:4414.1601:51:2914300:10:110:00:000:00:00
40 5921MANEL ASTALS DINARÉSCLUB TRIATLO SABADELLV1M02:02:0613300:25:2020001:27:0413.7801:52:2410100:09:420:00:000:00:00
41 2475CARLOS CABESTANY FERREDISTANCE LA SALLEV1M02:02:2624600:28:0615901:23:2014.4001:51:2621300:11:000:00:000:00:00
42 6262MARC JOVER LLICENCIA DE DIAV1M02:02:4119800:26:4618801:25:3314.0301:52:1916700:10:220:00:000:00:00
43 194DANIEL TUDELA MARTINEZC.T. S.J. ABADESSESV1M02:02:5512800:25:1120901:28:1213.6101:53:238600:09:320:00:000:00:00
44 5454ANTONI FREIXA MARTINDISTANCE LA SALLEV1M02:03:0011000:24:4619701:26:5213.8101:51:3824200:11:220:00:000:00:00
45 2066DAVID ARTES DIAZINDEPENDENTV1M02:03:1825500:28:1915801:23:2014.4001:51:3926100:11:390:00:000:00:00
46 7031ANTONI MARTINEZ ALONSOLLICENCIA DE DIAV1M02:03:3024000:27:5616601:23:4514.3301:51:4127400:11:490:00:000:00:00
47 5367DANIEL SÁNCHEZ GARCIAC. TRI. GRANOLLERSV1M02:03:4514000:25:2921201:28:3113.5601:54:0010500:09:450:00:000:00:00
48 2814CARLOS PEREZ BARRALGAVA TRIATLOV1M02:03:5017400:26:1020701:27:5913.6401:54:099800:09:410:00:000:00:00
49 1414JAIRO HOYOS CHACONCLUB TRIATLO SABADELLV1M02:04:2824100:27:5818001:24:5314.1401:52:5125800:11:370:00:000:00:00
50 7021ESTEVE UTSET BADIELLA LLICENCIA DE DIAV1M02:04:3624300:28:0018201:25:1514.0801:53:1524000:11:210:00:000:00:00
51 6244JUAN MANUEL GORDILLO ALMALLICENCIA DE DIAV1M02:05:1018900:26:3620601:27:3713.7001:54:1320800:10:570:00:000:00:00
52 1105ROGER BESORA NOYAC.N. CATALUNYAV1M02:05:1727900:29:1218101:25:1114.0901:54:2320400:10:540:00:000:00:00
53 738JOSEP SOLE VALLDAURACLUB NATACIO MINORISAV1M02:05:5318600:26:3221001:28:1413.6001:54:4622300:11:070:00:000:00:00
54 7051XAVIER PONS MUNILLLLICENCIA DE DIAV1M02:06:5019300:26:3821301:28:3613.5401:55:1425600:11:360:00:000:00:00
55 7037SANTI CENTELLES GOMEZFEECV1M02:07:5515400:25:4923601:30:5913.1901:56:4822400:11:070:00:000:00:00
56 6263SALVADOR URRACA CONTRERASLLICENCIA DE DIAV1M02:08:1929700:30:0020101:27:1913.7401:57:1921200:11:000:00:000:00:00
57 7033TONET CASTRO FERNÁNDEZ LLICENCIA DE DIAV1M02:08:3013900:25:2723401:30:4913.2101:56:1629200:12:140:00:000:00:00
58 2427JORDI GONZALEZ BAROCEMEV1M02:08:4224500:28:0322101:29:2013.4301:57:2323800:11:190:00:000:00:00
59 7053TONI CARMONA TRUJILLOLLICENCIA DE DIAV1M02:08:4522700:27:3722601:30:1413.3001:57:5120500:10:540:00:000:00:00
60 6254LEOPOLDO SIERRA CHÀVEZLLICENCIA DE DIAV1M02:08:4714300:25:3324901:32:5712.9101:58:3015100:10:170:00:000:00:00
61 6226ANTONI VILCHEZLLICENCIA DE DIAV1M02:09:0931000:30:3219801:26:5413.8101:57:2626600:11:430:00:000:00:00
62 6224SEBASTIÁN SALMERÓN ORTIZLLICENCIA DE DIAV1M02:09:3127500:29:0322201:29:2513.4201:58:2821700:11:030:00:000:00:00
63 7035JOSE RUIZ MARTOSLLICENCIA DE DIAV1M02:09:4325300:28:1622801:30:2213.2801:58:3822000:11:050:00:000:00:00
64 6218OSWALD CARRERAS CABEZASLLICENCIA DE DIAV1M02:09:4823300:27:4723201:30:4613.2201:58:3323500:11:150:00:000:00:00
65 7067JOSE ESCUDERO FERNANDEZLLICENCIA DE DIAV1M02:10:0521400:27:1525101:33:0912.8802:00:249900:09:410:00:000:00:00
66 7062JAVIER ORDUNA ORUJLLICENCIA DE DIAV1M02:10:1414500:25:3426001:35:0112.6302:00:359500:09:390:00:000:00:00
67 7008CRISANT CERDAN MORALESLLICENCIA DE DIAV1M02:10:4422000:27:2224101:32:0313.0401:59:2523700:11:190:00:000:00:00
68 3600DANIEL MIRÓ FUENTESCEMEV1M02:11:5024200:28:0024601:32:4412.9402:00:4422100:11:060:00:000:00:00
69 7071CRUZ AMBITE GARCIALLICENCIA DE DIAV1M02:13:0226000:28:3524201:32:1413.0102:00:4929100:12:130:00:000:00:00
70 6282XAVIER MORLIUS AIZARNALLICENCIA DE DIAV1M02:13:2026500:28:4422701:30:1413.3001:58:5832200:14:220:00:000:00:00
71 7027PERE BOU PLANELLLLICENCIA DE DIAV1M02:13:3721600:27:1726101:35:0112.6302:02:1823900:11:190:00:000:00:00
72 6213PEPE VALLS PETCHAMÉLLICENCIA DE DIAV1M02:13:3931800:31:3521901:29:1813.4402:00:5330300:12:460:00:000:00:00
73 5904JOAQUIM MUSSULL SAGASTEGUCLUB NATACIO CALDESV1M02:13:399300:24:0629201:39:5712.0102:04:039300:09:360:00:000:00:00
74 2835JESÚS ABELLAN GOMEZCLUB TRIATLO SABADELLV1M02:14:1630000:30:0224701:32:4412.9402:02:4625000:11:300:00:000:00:00
75 7078CARLES MOIX CAMPDELACREULLICENCIA DE DIAV1M02:14:2127300:28:5925701:34:1612.7302:03:1522200:11:060:00:000:00:00
76 5982AGUSTÍ BARTRA YLLATRIATLO TERRASSASPORTS-CIV1M02:14:3025600:28:2826201:35:1312.6002:03:4119700:10:490:00:000:00:00
77 6230JORDI MARTINEZ PILLICENCIA DE DIAV1M02:14:3428300:29:2125501:33:2112.8502:02:4227700:11:520:00:000:00:00
78 915JOSEP MARIA MORENO FURNERTRIATLO FISIORUTPUJOL.COMV1M02:14:3718300:26:2927601:37:5712.2502:04:2614100:10:110:00:000:00:00
79 6260ANTONIO ENCINAS GAMEZLLICENCIA DE DIAV1M02:15:1721300:27:1226501:35:5812.5002:03:1028800:12:070:00:000:00:00
80 5962WILFRED MURILLO PEREZINDEPENDENTV1M02:15:2325800:28:3325901:34:4412.6702:03:1728600:12:060:00:000:00:00
81 7088JORDI CODINAS FORTFEECV1M02:15:2528900:29:5224801:32:4912.9302:02:4130200:12:440:00:000:00:00
82 5984JAVIER GUIRAO FELIUCLUB TRIATLO IRWLV1M02:15:5727400:29:0226701:36:0212.5002:05:0420200:10:530:00:000:00:00
83 7076JOSEP FRÍAS GALLEGOLLICENCIA DE DIAV1M02:17:4021700:27:2029801:40:2811.9402:07:4811100:09:520:00:000:00:00
84 5993JORDI LLUCIÀ CATASÚSTRIDIRV1M02:18:0319600:26:4529901:40:3011.9402:07:1519400:10:480:00:000:00:00
85 7003TONI DÍAZ ARNAUFEECV1M02:18:3819500:26:4427901:38:3112.1802:05:1531200:13:230:00:000:00:00
86 3332DAVID ESCUDERO RODELASCLUB TRIATLO SABADELLV1M02:19:1930700:30:1727801:38:1612.2102:08:3319100:10:460:00:000:00:00
87 6217JOSEP CASTRO PULIDOLLICENCIA DE DIAV1M02:20:3129200:29:5327201:37:0312.3602:06:5631600:13:350:00:000:00:00
88 6219JOAN ANTON FORNIELES CONTLLICENCIA DE DIAV1M02:20:3131300:30:5826601:35:5812.5002:06:5631500:13:350:00:000:00:00
89 6236DAVID PALMA TENALLICENCIA DE DIAV1M02:20:4225900:28:3529501:40:1811.9602:08:5327300:11:490:00:000:00:00
90 7068JORDI GONZÁLEZ RIQUELMELLICENCIA DE DIAV1M02:22:0226800:28:5130201:41:2611.8302:10:1726900:11:450:00:000:00:00
91 6246CARLOS GALISTEO LANCASTRELLICENCIA DE DIAV1M02:23:4430100:30:0330301:41:3711.8102:11:4028500:12:040:00:000:00:00
92 5986VÍCTOR HERNÁNDEZ AZNARTRIATLO TERRASSASPORTS-CIV1M02:23:4726100:28:3631101:44:2911.4902:13:0518900:10:420:00:000:00:00
93 1400EDU DOMENECH RUBIDISTANCE LA SALLEV1M02:29:1832800:33:0530601:42:2111.7202:15:2631700:13:520:00:000:00:00
94 7034RAFA GALERA SOLALLICENCIA DE DIAV1M02:29:3829900:30:0131801:47:2711.1702:17:2829000:12:100:00:000:00:00
95 6285JOSEP FIGUEREOFEECV1M02:29:4524800:28:1132501:48:4511.0302:16:5630400:12:490:00:000:00:00
96 6259ALBERTO LIS BELVISLLICENCIA DE DIAV1M02:30:1931500:31:2431901:47:2811.1702:18:5224900:11:270:00:000:00:00
97 6238MANUEL CARVAJAL GUERREROLLICENCIA DE DIAV1M02:31:0128400:29:2632201:48:3611.0502:18:0230600:12:590:00:000:00:00
98 7054NACHO SANTAMARIA MUÑOZLLICENCIA DE DIAV1M02:31:0532400:32:1231701:46:5411.2302:19:0628200:11:590:00:000:00:00
99 6209JOAQUIM GAYA GEALLICENCIA DE DIAV1M02:33:2027200:28:5832901:51:0310.8102:20:0130900:13:190:00:000:00:00
CATEGORIA: V2M
LLOCDORSALNOMCLUBCAT.T.META| P.Tram 1 || P.Tram 2 |Km/hTEMPS| P.Tram 3 |PARC_1PARC_2
1 1709MIQUEL GENOLLA SUBIRATSINDEPENDENTV2M01:36:544300:22:243601:05:3818.2801:28:023400:08:520:00:000:00:00
2 996SANTI RIBOT TERRICABRASC. TRI. GRANOLLERSV2M01:43:336000:23:207501:11:0516.8801:34:255500:09:080:00:000:00:00
3 2482ALBERT PUYAL MASGORETCLUB MEDINA TRIATLOV2M01:44:166100:23:217001:10:4016.9801:34:0114900:10:150:00:000:00:00
4 1168MARIANO MENDEZ CABRASCLUB NATACIO MINORISAV2M02:03:3221800:27:2119001:25:5613.9601:53:1714700:10:150:00:000:00:00
5 6235JORDI SERRRALLICENCIA DE DIAV2M02:06:2122900:27:4019601:26:5013.8201:54:3027600:11:510:00:000:00:00
6 3182ANTONI ISASI-ISASMENDIDISTANCE LA SALLEV2M02:06:5930300:30:0919201:26:2313.8901:56:3216900:10:270:00:000:00:00
7 161LLUÍS AMAT TARDIUSOC ATLETICA CORBERAV2M02:14:1710400:24:3229301:40:0511.9902:04:379700:09:400:00:000:00:00
8 7028FRANCISCO BECERRA TRENCHSLLICENCIA DE DIAV2M02:19:4520300:26:5629601:40:2311.9502:07:1929400:12:260:00:000:00:00
9 7074JORDI PARERA MARTINELLLLICENCIA DE DIAV2M02:20:4529300:29:5528501:39:1112.1002:09:0626200:11:390:00:000:00:00
10 7079XAVIER FERRER BALLESTERLLICENCIA DE DIAV2M02:25:3428600:29:3231201:44:5011.4502:14:2223100:11:120:00:000:00:00
11 7082XAVIER VICENTE ALEMANYFEECV2M02:29:2930200:30:0432101:47:4911.1302:17:5325700:11:360:00:000:00:00
12 975MIQUEL ANGEL SIMON BARALDC.N. CATALUNYAV2M02:32:1932100:31:5032301:48:3911.0402:20:2927500:11:500:00:000:00:00
CATEGORIA: V3M
LLOCDORSALNOMCLUBCAT.T.META| P.Tram 1 || P.Tram 2 |Km/hTEMPS| P.Tram 3 |PARC_1PARC_2
1 1643RAMON SALVANS BOVERCN VIC-ETBV3M02:04:1123700:27:5017601:24:4114.1701:52:3126400:11:400:00:000:00:00
2 971EDUARD ESPRIU FULLAC.N. CATALUNYAV3M02:32:3933000:35:3630701:43:4311.5702:19:1931100:13:200:00:000:00:00
CATEGORIA: V1F
LLOCDORSALNOMCLUBCAT.T.META| P.Tram 1 || P.Tram 2 |Km/hTEMPS| P.Tram 3 |PARC_1PARC_2
1 3558TERESA PONS MUNILLDISTANCE LA SALLEV1F01:45:5514700:25:386401:10:1317.0901:35:5113100:10:040:00:000:00:00
2 5147NURIA LAUCO MARTÍNEZC. TRI. GRANOLLERSV1F01:48:2712400:25:058901:13:0516.4201:38:1015200:10:170:00:000:00:00
3 1888PAULA DE LA CUESTAC.T.S.J. ABADESSESV1F02:03:1425100:28:1417001:24:0914.2601:52:2319800:10:510:00:000:00:00
4 1818MARTA CUSIDO USTRELLC.T. S.J. ABADESSESV1F02:16:0717900:26:2428001:38:3512.1702:04:5922600:11:080:00:000:00:00
5 7073MUNTSA TORRENTS PONCELLICENCIA DE DIAV1F02:20:4429500:29:5528601:39:1212.1002:09:0725900:11:370:00:000:00:00
CATEGORIA: ABM
LLOCDORSALNOMCLUBCAT.T.META| P.Tram 1 || P.Tram 2 |Km/hTEMPS| P.Tram 3 |PARC_1PARC_2
1 5997ISMAEL VENTURA SANCHEZC. ATLETISME MONTORNESABM01:21:051000:20:55100:51:2723.3201:12:222900:08:430:00:000:00:00
2 224ALBERT SOLEY CASTELLST-BIKES CLUB TRIATLOABM01:23:44400:20:19300:55:2321.6701:15:42300:08:020:00:000:00:00
3 3895XAVIER MADRONA VILACLUB TRIATLO LLUÇANESABM01:23:58800:20:28200:55:2321.6701:15:51600:08:070:00:000:00:00
4 1647ANIBAL FIDALGO LOPEZCLUB MEDINA TRIATLOABM01:24:21300:20:18400:55:2821.6301:15:462200:08:350:00:000:00:00
5 3614ROBERTO FIDALGO LOPEZCLUB MEDINA TRIATLOABM01:25:41500:20:24700:57:2320.9101:17:47200:07:540:00:000:00:00
6 4501VICTOR PEREZ VAZQUEZC.N. REUS PLOMSABM01:28:293000:21:58900:57:5320.7301:19:512500:08:380:00:000:00:00
7 461DANIEL SAGRERA VULARTDISTANCE LA SALLEABM01:28:52900:20:451301:00:0020.0001:20:45700:08:070:00:000:00:00
8 5908ALBERT MENDOZA SILLEROCLUB TRI-BUABM01:29:144600:22:29600:57:2320.9101:19:527000:09:220:00:000:00:00
9 3741IVAN ACOSTA SEGOVIAT-BIKES CLUB TRIATLOABM01:29:492500:21:411100:59:2920.1701:21:102600:08:390:00:000:00:00
10 3898JOSEP ITO RIUCLUB TRIATLO LLUÇANESABM01:29:571300:21:051200:59:5620.0201:21:014100:08:560:00:000:00:00
11 436JORDI BONET NIETOT-BIKES CLUB TRIATLOABM01:30:36700:20:271601:01:3719.4801:22:042000:08:320:00:000:00:00
12 424ORIOL BUCH BAUTISTAC.E. TRIBIKE CABRILSABM01:30:572100:21:331401:00:3619.8001:22:093200:08:480:00:000:00:00
13 7084XAVI ROCA CANALSFEECABM01:31:015300:23:051000:58:2520.5401:21:308400:09:310:00:000:00:00
14 5392DANI BORDALLO ROVIRACLUB TRIATLO LLUÇANESABM01:31:05200:20:042001:02:5519.0701:22:59500:08:060:00:000:00:00
15 631CARLOS LUIS PERELLOCLUB A.C.E. TRIATLO BOMBEABM01:32:571400:21:082301:03:2818.9101:24:361100:08:210:00:000:00:00
16 416RAFAEL TORO MARTINEZCLUB MEDINA TRIATLOABM01:33:431500:21:092401:03:4018.8501:24:493800:08:540:00:000:00:00
17 847JORDI ARTAU PLENACOSTACLUB TRI-BUABM01:34:474500:22:282201:03:1718.9601:25:454700:09:020:00:000:00:00
18 937SERGI DURBAU JULIACLUB TRI-BUABM01:35:144400:22:262501:03:4818.8101:26:144300:09:000:00:000:00:00
19 3870RICARD COSTA PUIGPELATCLUB TRIATLO L´EIX DE NAVABM01:35:182400:21:413401:05:0418.4401:26:452100:08:330:00:000:00:00
20 2798FRANCESC MOLAS TARRESCLUB ATLETIC TORELLO - TRABM01:35:381600:21:164001:06:1618.1101:27:32400:08:060:00:000:00:00
21 1681CRISTIAN NAVARRO MARCOSC.T. S.J. ABADESSESABM01:35:414200:22:212901:04:3418.5901:26:553100:08:460:00:000:00:00
22 857JAUME FREIXES PUIGCLUB TRI-BUABM01:36:192900:21:493001:04:3818.5701:26:2711200:09:520:00:000:00:00
23 3878ANTONI NICUESA CASTAÑOCLUB FIT GYMABM01:36:253200:22:063501:05:2518.3401:27:313900:08:540:00:000:00:00
24 3471CARLOS DELGADO GARCIAINDEPENDENTABM01:36:352700:21:483301:05:0318.4501:26:5110400:09:440:00:000:00:00
25 6223JAVIER ARREDONDO RUIZLLICENCIA DE DIAABM01:36:4010600:24:351901:02:3819.1601:27:137800:09:270:00:000:00:00
26 3903MARC CIRERA CASELLASCLUB TRIATLO L´EIX DE NAVABM01:36:505000:23:002801:04:1818.6601:27:188700:09:320:00:000:00:00
27 3896JORDI FONT CORRIUSCLUB TRIATLO LLUÇANESABM01:37:145500:23:093201:04:5818.4701:28:075200:09:070:00:000:00:00
28 763JOAQUIM COMAS ROCACLUB ATLETIC TORELLO - TRABM01:37:208700:24:042701:03:5718.7601:28:016700:09:190:00:000:00:00
29 5978JAUME FONT VIRTUSCLUB A.C.E. TRIATLO BOMBEABM01:38:193900:22:204601:06:5917.9101:29:194500:09:000:00:000:00:00
30 7029XAVIER GIL ROCALLICENCIA DE DIAABM01:38:306300:23:223801:05:5918.1901:29:215700:09:090:00:000:00:00
31 5707CARLOS AMEZCUA SOLERINDEPENDENTABM01:39:096500:23:244301:06:3518.0201:29:595800:09:100:00:000:00:00
32 248MARC RIUS CHARLESC. TRI. GRANOLLERSABM01:39:133500:22:145601:08:0417.6301:30:184000:08:550:00:000:00:00
33 5842AITOR ROMAN ARCOCLUB TRIATLO L´EIX DE NAVABM01:39:247000:23:434401:06:5017.9601:30:333300:08:510:00:000:00:00
34 3919SERGI ESCRIU MATEUCLUB TRIATLO SABADELLABM01:39:31000:00:00000:00:000.0001:30:552400:08:360:00:000:00:00
35 1412CRISTIAN PEREZ LATRILLACLUB TRIATLO SABADELLABM01:39:465100:23:015401:08:0017.6501:31:013000:08:450:00:000:00:00
36 693DAVID LOPEZ RUIZCLUB TRIATLO L´EIX DE NAVABM01:39:484900:22:464701:07:1117.8601:29:5711000:09:510:00:000:00:00
37 5901JAVIER MORO BARRIOSCLUB MEDINA TRIATLOABM01:40:136600:23:294801:07:2117.8201:30:507500:09:230:00:000:00:00
38 7025LUIS BIELSA ALLOZALLICENCIA DE DIAABM01:40:211900:21:286201:09:5917.1501:31:273700:08:540:00:000:00:00
39 2490XAVIER COLOMER  BASSAGANYC.T.S.J. ABADESSESABM01:40:227400:23:524501:06:5417.9401:30:469400:09:360:00:000:00:00
40 4876PATRICIO ROSSIC.E. SISTRELLSABM01:40:406900:23:435301:07:5517.6701:31:384800:09:020:00:000:00:00
41 388ELOY SERRANO RODRIGUEZC.N. REUS PLOMSABM01:41:064100:22:216801:10:3617.0001:32:57900:08:090:00:000:00:00
42 2511CARLES DEBÓN UTIELFASTTRIATLON CLUBABM01:41:074800:22:456101:09:5217.1801:32:371900:08:300:00:000:00:00
43 6203ALBERTO ARREDONDO RUIZFEECABM01:41:409000:24:055201:07:5217.6801:31:5710300:09:430:00:000:00:00
44 7032JOSE ANTONIO GARCIA CARPLLICENCIA DE DIAABM01:41:519600:24:125001:07:4717.7001:31:5911500:09:520:00:000:00:00
45 217RAIMON CORRALES OROBITGINDEPENDENTABM01:42:005600:23:125701:08:4117.4701:31:5313400:10:070:00:000:00:00
46 4794TONI FONT MARTICLUB ATLETIC TORELLO - TRABM01:42:163600:22:167801:11:2516.8001:33:412300:08:350:00:000:00:00
47 3877ANDREU GARCIA QUINTANILLACLUB FIT GYMABM01:42:473100:21:588401:12:2716.5601:34:251300:08:220:00:000:00:00
48 2524JORDI RIAL COMELLASC.N. REUS PLOMSABM01:43:283400:22:138001:11:4516.7201:33:588300:09:300:00:000:00:00
49 7002TONI CONTRERAS PLANELLFEECABM01:43:355900:23:187301:10:4816.9501:34:068200:09:290:00:000:00:00
50 3730ANTONIO ESPINOLA HINOJOSACLUB TRIATLO BADIA DEL VAABM01:43:4615000:25:415501:08:0317.6301:33:4412600:10:020:00:000:00:00
51 989ROGER SEGUI SARDATRIATLO FISIORUTPUJOL.COMABM01:43:571100:20:5910001:14:4716.0501:35:461000:08:110:00:000:00:00
52 2591JOSE LUIS MORENO RAMIREZCERDANYOLA CHABM01:44:087700:23:558101:11:4816.7101:35:431400:08:250:00:000:00:00
53 624ORIOL MAYNERIS PERXACHSCLUB TRIATLO BAIX MONTSENABM01:44:126700:23:327901:11:3316.7701:35:055300:09:070:00:000:00:00
54 6245ALEX AURELL BIOSCALLICENCIA DE DIAABM01:44:2511600:24:546001:09:3517.2501:34:2912000:09:560:00:000:00:00
55 352ISMAEL VICENTE JOYERAC. TRI. GRANOLLERSABM01:45:025400:23:098501:12:3016.5501:35:397400:09:230:00:000:00:00
56 7049JOSE VICENTE TOBALO BARRELLICENCIA DE DIAABM01:45:0913200:25:176501:10:1917.0701:35:368900:09:330:00:000:00:00
57 7007RAUL PEREZ LIMONCHILLICENCIA DE DIAABM01:45:1912000:24:597101:10:4016.9801:35:399600:09:400:00:000:00:00
58 7061JORGE MARTI UBRICLLICENCIA DE DIAABM01:45:307300:23:496301:10:0117.1401:33:5026300:11:400:00:000:00:00
59 7086QUIM MAYOLAS JUNYENTFEECABM01:45:346200:23:216901:10:3916.9901:34:0025200:11:340:00:000:00:00
60 531XAVIER HERENCIA SANCHEZTRIATLO TERRASSASPORTS-CIABM01:46:009500:24:108301:12:2216.5801:36:328000:09:280:00:000:00:00
61 6202ROGER PEIXÓ FITÉFEECABM01:46:108900:24:048201:11:5516.6901:35:5914000:10:110:00:000:00:00
62 6276FRANK MULA RUBIOLLICENCIA DE DIAABM01:46:2728800:29:483101:04:5118.5001:34:3927200:11:480:00:000:00:00
63 5898FRANCESC LOPEZ MARISCALC.T. S.J. ABADESSESABM01:47:218400:24:028701:12:4316.5001:36:4518000:10:360:00:000:00:00
64 774LUIS ESTRELLA PASTORCLUB A.C.E. TRIATLO BOMBEABM01:47:5211100:24:469401:13:4916.2601:38:356500:09:170:00:000:00:00
65 3910XAVIER SANCHEZ RODACLUB NATACIO CALDESABM01:47:537900:23:589901:14:3416.0901:38:326900:09:210:00:000:00:00
66 4317CARLOS CARRASCO RODRIGUEC. TRI. GRANOLLERSABM01:48:2710900:24:459201:13:2016.3601:38:0516500:10:220:00:000:00:00
67 3258RAUL CANOVAS CRUZCLUB A.C.E. TRIATLO BOMBEABM01:48:5212300:25:049701:14:1416.1701:39:189000:09:340:00:000:00:00
68 6212DANIEL MUÑOZ RUIZLLICENCIA DE DIAABM01:48:5614400:25:339001:13:0616.4201:38:3915300:10:170:00:000:00:00
69 1780JOAN RAMON PUJOL BANUSCLUB TRIATLO LLEIDA ABM01:48:5913100:25:179601:14:0916.1801:39:268800:09:330:00:000:00:00
70 4600JESUS ARANDA OSUNACLUB TRIATLO BADIA DEL VAABM01:49:1115100:25:449301:13:4116.2901:39:2510600:09:460:00:000:00:00
71 5895MARTÍ FOREST TITOSCLUB TRIBUABM01:49:319100:24:0511801:16:0815.7601:40:136600:09:180:00:000:00:00
72 2243LUIS DE PABLO LOPEZDISTANCE LA SALLEABM01:49:3917500:26:168601:12:3416.5401:38:5019600:10:490:00:000:00:00
73 5956MARIÀ GÀLVEZ I VALDERRAMACLUB TRIATLO SABADELLABM01:49:4413000:25:158801:13:0516.4201:38:2024500:11:240:00:000:00:00
74 1415KILIAN GARCIA JAMINCLUB TRIATLO SABADELLABM01:49:469200:24:0511401:15:3815.8701:39:4312800:10:030:00:000:00:00
75 6274MARC MEDRAN LLONCHLLICENCIA DE DIAABM01:49:467800:23:5611301:15:3615.8701:39:3214600:10:140:00:000:00:00
76 1747ENEKO FERNANDEZ GONZALEZCLUB TRIATLO LLEIDA ABM01:50:108100:23:5811701:16:0315.7801:40:0113700:10:090:00:000:00:00
77 6231ANTONIO CABEZALLICENCIA DE DIAABM01:50:1914900:25:419801:14:2716.1201:40:0814200:10:110:00:000:00:00
78 2477RAFAEL HIERRO PEREZCLUB NATACIO RUBIABM01:51:1811900:24:5911601:15:5115.8201:40:5017300:10:280:00:000:00:00
79 4112ALEJANDRO TORO TOMASCLUB TRIATLO BADIA DEL VAABM01:51:1915900:25:5711201:15:2615.9101:41:2311900:09:560:00:000:00:00
80 643FERRAN GARRIGOSA CARRERASDISTANCE LA SALLEABM01:51:2916500:26:0110701:15:1015.9601:41:1115600:10:180:00:000:00:00
81 5995FRANCESC ALBUERA REVERTÉCLUB TRIATLÓ LLEIDA ABM01:52:177100:23:4612901:18:5515.2101:42:419200:09:360:00:000:00:00
82 6278MARC MULLFUYEDA ROVIRAFEECABM01:52:556800:23:4113901:20:1414.9601:43:554400:09:000:00:000:00:00
83 5366ALBERT GUERREROC.N. VIC-ETBABM01:53:0413400:25:2212401:18:0815.3601:43:309100:09:340:00:000:00:00
84 2444GONZALO MUÑOZ DOMINGOCLUB NATACIO RUBIABM01:53:1710200:24:2513201:19:0915.1601:43:3410200:09:430:00:000:00:00
85 7013RAMON RAMOS GARCIALLICENCIA DE DIAABM01:53:4022600:27:3411001:15:1915.9301:42:5319300:10:470:00:000:00:00
86 4947ALBERTO MONTES OLIVACLUB TRIATLO BLANESABM01:55:2316900:26:0813001:18:5715.2001:45:0515700:10:180:00:000:00:00
87 5373JAVIER MIMOSO MORENOCERDANYOLA CHABM01:55:3115700:25:5513301:19:0915.1601:45:0417000:10:270:00:000:00:00
88 2611JORDI PLANAS MARTINEZTRIATLO TERRASSASPORTS-CIABM01:55:487200:23:4615101:22:0614.6201:45:5211800:09:560:00:000:00:00
89 6201ADRIA MUÑOZ ILLANALLICENCIA DE DIAABM01:56:011700:21:1818701:25:3114.0301:46:496000:09:120:00:000:00:00
90 2294BERNAT VALLS MATEUDISTANCE LA SALLEABM01:56:0817600:26:2013401:19:1015.1601:45:3018100:10:380:00:000:00:00
91 7026ISAAC CAMPOS PELÁEZLLICENCIA DE DIAABM01:56:1616200:25:5913601:19:2415.1101:45:2320300:10:530:00:000:00:00
92 3283JOAN PAÑELLA ARAUJOVILADECANS TRIATLOABM01:56:1712700:25:0914901:21:5514.6501:47:046100:09:130:00:000:00:00
93 3733NARCISO PÉREZ GONZÁLEZC.N. PRAT-TRIATLOABM01:56:3120100:26:5113701:19:4115.0601:46:3212200:09:590:00:000:00:00
94 7075MARC ALEJANDRO ALARCÓNLLICENCIA DE DIAABM01:56:3620400:26:5613101:19:0615.1701:46:0217800:10:340:00:000:00:00
95 4139VICTOR JULIO CARTESDISTANCE LA SALLEABM01:56:4015600:25:5414101:20:2614.9201:46:2016300:10:200:00:000:00:00
96 5845JORDI GONZALEZ TELLOJOVENTUT ATLETICA MONTCADABM01:56:5421500:27:1612801:18:5215.2201:46:0819000:10:460:00:000:00:00
97 7056ÁLVARO LECHUGA SAPIÑAFEECABM01:57:1415800:25:5614201:20:2914.9101:46:2519500:10:490:00:000:00:00
98 6273ALBERTO SERRANO MUÑOZLLICENCIA DE DIAABM01:57:1818400:26:3114001:20:2514.9201:46:5616600:10:220:00:000:00:00
99 1507ELOI SOLA LAGARESCLUB VO2ABM01:58:0220800:27:0314501:21:0414.8001:48:0711700:09:550:00:000:00:00
100 7050RAÚL PIÑA CASTETLLICENCIA DE DIAABM01:58:5820200:26:5514601:21:3514.7101:48:3017100:10:280:00:000:00:00
101 6240SALVADOR BAYO CARVAJALLLICENCIA DE DIAABM01:59:0724700:28:0813501:19:1415.1501:47:2227100:11:450:00:000:00:00
102 826OMAR MARTINEZ OSUNACLUB TRIATLO LLUÇANESABM01:59:1016400:26:0116201:23:2714.3801:49:2810000:09:420:00:000:00:00
103 6284GERARD ESTRANY ALCÀNTARAFEECABM01:59:1211300:24:5116301:23:2714.3801:48:1820600:10:540:00:000:00:00
104 6243PACO PEREZ SOTOSLLICENCIA DE DIAABM02:00:0618700:26:3215001:22:0314.6301:48:3525100:11:310:00:000:00:00
105 1284JOSEP TORRAS MASC.A. IGUALADAABM02:00:1315200:25:4616001:23:2614.3801:49:1221400:11:010:00:000:00:00
106 5988RUBÉN GARCÍA CANOC.E. SISTRELLSABM02:00:1511700:24:5418501:25:2914.0401:50:2311400:09:520:00:000:00:00
107 264GONZALO MARCHENA MARSETINDEPENDENTABM02:00:1714200:25:3116901:24:0514.2701:49:3618700:10:410:00:000:00:00
108 5989ALBERT SOLA COLOMERAC.N. PRAT-TRIATLOABM02:00:1916600:26:0417201:24:1314.2501:50:1712500:10:020:00:000:00:00
109 5952RUBEN FERNANDEZ ENCINASCLUB TRIATLO BADIA DEL VAABM02:00:2319900:26:4816501:23:4514.3301:50:3310900:09:500:00:000:00:00
110 7066MIQUEL LLAMAS CASTILLOLLICENCIA DE DIAABM02:00:3510700:24:3618301:25:2714.0401:50:0317500:10:320:00:000:00:00
111 6258SERGI GARCIA CANOLLICENCIA DE DIAABM02:00:4415300:25:4917801:24:4814.1501:50:3713300:10:070:00:000:00:00
112 5983JORDI GUIJARRO VALEROC.N. SABADELLABM02:01:1112600:25:0818601:25:3014.0401:50:3817700:10:330:00:000:00:00
113 6281CARLOS MOLINA ROBLESLLICENCIA DE DIAABM02:01:1525400:28:1914301:20:4214.8701:49:0129300:12:140:00:000:00:00
114 6275MOISES VALERO RUIZLLICENCIA DE DIAABM02:01:2911500:24:5419301:26:3113.8701:51:2513000:10:040:00:000:00:00
115 7019DIEGO PALMA MÁRMOLLLICENCIA DE DIAABM02:02:0323100:27:4316101:23:2714.3801:51:1020100:10:530:00:000:00:00
116 6237ANDRES VIVAR GUIZALLICENCIA DE DIAABM02:02:0320600:26:5817901:24:5214.1401:51:5014500:10:130:00:000:00:00
117 7006JOSE LUIS HERNANDEZ ORDAXLLICENCIA DE DIAABM02:02:2920500:26:5817401:24:3314.1901:51:3121100:10:580:00:000:00:00
118 4464JORDI FONTSECA SAÑECN VIC-ETBABM02:02:4819000:26:3718901:25:5513.9701:52:3215000:10:160:00:000:00:00
119 7048XAVI CLUA GONZALEZLLICENCIA DE DIAABM02:02:5910300:24:3215401:22:5614.4701:47:2832600:15:310:00:000:00:00
120 6266JOSE ANTONIO CALVACHE ROLLLICENCIA DE DIAABM02:03:0520700:27:0218401:25:2814.0401:52:3017900:10:350:00:000:00:00
121 5451JOSEP MARIA ALCALA PRIETOC.N. CASTELLET TRIATLÓABM02:03:1016700:26:0719401:26:4813.8201:52:5514800:10:150:00:000:00:00
122 5906DANIEL AMEZCUA SOLERINDEPENDENTABM02:03:3522100:27:2417301:24:2814.2101:51:5226500:11:430:00:000:00:00
123 1520VICENÇ CLARENA RIERAC.N. SABADELLABM02:03:3922400:27:3119501:26:4913.8201:54:206800:09:190:00:000:00:00
124 7030ROGER BOSCH SEGARRALLICENCIA DE DIAABM02:03:477500:23:5423101:30:4613.2201:54:405400:09:070:00:000:00:00
125 7010JORDI PEULA RODRIGUEZLLICENCIA DE DIAABM02:04:0729000:29:5215501:22:5714.4701:52:4923600:11:180:00:000:00:00
126 6214JORDI MARTÍNEZ CASTILLOLLICENCIA DE DIAABM02:04:0830400:30:1115301:22:4514.5001:52:5622900:11:120:00:000:00:00
127 5987ARNAU GALÍ CASTROINDEPENDENTABM02:04:1411800:24:5920801:28:0213.6301:53:0123300:11:130:00:000:00:00
128 3776MARC SERRAT BARCELOCLUB NATACIÓ BANYOLESABM02:06:0017700:26:2122001:29:2013.4301:55:4115900:10:190:00:000:00:00
129 1722CARLES MASNOU MORENOTRIATLO FISIORUTPUJOL.COMABM02:06:3918100:26:2621401:28:4713.5201:55:1324800:11:260:00:000:00:00
130 7014ADRIÀ FORTE MARTINEZLLICENCIA DE DIAABM02:06:4313600:25:2420201:27:2013.7401:52:4432000:13:590:00:000:00:00
131 6251MARTÍ CEREZO GRÀCIALLICENCIA DE DIAABM02:07:0517800:26:2321801:29:1613.4401:55:3924700:11:260:00:000:00:00
132 4644JOSEP GARCES GOMEZC. TRI. GRANOLLERSABM02:07:2114100:25:2924501:32:4312.9401:58:125600:09:090:00:000:00:00
133 7041DAVID FERNANDEZ PEIDROLLICENCIA DE DIAABM02:07:5317200:26:1023001:30:4113.2301:56:5121500:11:020:00:000:00:00
134 7016JOAN SOLEY BABIALLICENCIA DE DIAABM02:08:0022200:27:2921101:28:2913.5601:55:5828400:12:020:00:000:00:00
135 6269JOSE ANTONIO GUZMÁN PERALLLICENCIA DE DIAABM02:08:0312500:25:0823301:30:4913.2101:55:5728700:12:060:00:000:00:00
136 1029RAMON LUIS GOMEZ PLANASCLUB TRIATLO L´EIX DE NAVABM02:08:5326200:28:4021501:29:0213.4801:57:4222800:11:110:00:000:00:00
137 6239JOSE MIGUEL AGUDO SIERRALLICENCIA DE DIAABM02:09:0021900:27:2123801:31:2013.1401:58:4115800:10:190:00:000:00:00
138 7055DAVID LUNA CALVENTUSLLICENCIA DE DIAABM02:09:0626300:28:4221601:29:0213.4801:57:4424100:11:220:00:000:00:00
139 5991MARC MARTI MATALONGACERCLES SABADELLES 1856ABM02:09:0620000:26:4922901:30:3213.2501:57:2127000:11:450:00:000:00:00
140 6255CARLOS PUIG JOVÉLLICENCIA DE DIAABM02:09:4323200:27:4623901:31:5513.0601:59:4112700:10:020:00:000:00:00
141 7064MARC AYALA MALDONADOLLICENCIA DE DIAABM02:09:4323400:27:4823701:31:0813.1701:58:5619200:10:470:00:000:00:00
142 3467ALEIX FERNANDEZ HERRERAFASTTRIATLON CLUBABM02:10:1622800:27:4024301:32:1513.0101:59:5516400:10:210:00:000:00:00
143 7015JUANMA RODRIGUEZ MELICHLLICENCIA DE DIAABM02:11:0423000:27:4324401:32:2312.9902:00:0621000:10:580:00:000:00:00
144 2310JOSEP GARCIA BROSSAC.N. SABADELLABM02:11:0613800:25:2527001:36:1512.4702:01:407600:09:260:00:000:00:00
145 7001CARLES ROCHA CUTILLERFEECABM02:11:1314600:25:3525301:33:1012.8801:58:4529500:12:280:00:000:00:00
146 3724ORIOL PERIS MURCIAJOVENTUT ATLETICA MONTCADABM02:11:1326600:28:4423501:30:5313.2001:59:3725500:11:360:00:000:00:00
147 6287ADRIA BRUGAL CRESPOLLICENCIA DE DIAABM02:11:1527000:28:5422501:29:5113.3601:58:4529600:12:300:00:000:00:00
148 7043ALBERTO MOYA MIRALLESLLICENCIA DE DIAABM02:11:3818500:26:3225201:33:1012.8801:59:4227900:11:560:00:000:00:00
149 6241ADRIÁN GAMIZ CÉSPEDESLLICENCIA DE DIAABM02:11:4523500:27:4825401:33:1512.8702:01:0318800:10:420:00:000:00:00
150 5992EDUARDO DOZ GUZMANCERCLES SABADELLES 1856ABM02:12:0511200:24:4926901:36:0412.4902:00:5323200:11:120:00:000:00:00
151 6272ÓSCAR SÁNCHEZ LÓPEZLLICENCIA DE DIAABM02:12:3129600:30:0021701:29:0813.4601:59:0831300:13:230:00:000:00:00
152 7081JORDI TRULLAS FABALLICENCIA DE DIAABM02:13:0328200:29:2022401:29:4513.3701:59:0531900:13:580:00:000:00:00
153 3734VÍCTOR APARICIO PALOMARC.N. PRAT-TRIATLOABM02:14:4215500:25:5327401:37:3912.2902:03:3222700:11:100:00:000:00:00
154 7058ALBERTO GUARINO TIRADOFEECABM02:15:5419200:26:3824001:31:5713.0501:58:3533100:17:190:00:000:00:00
155 5965JOAN GARRIGA SOLAC.T. PARETS DEL VALLESABM02:16:0925700:28:3227101:36:4412.4102:05:1620000:10:530:00:000:00:00
156 7039ERNESTO CIRERA LÓPEZ LLICENCIA DE DIAABM02:17:557600:23:5530901:44:1111.5202:08:0610700:09:490:00:000:00:00
157 7083FRANCISCO JAVIER RIBAS SALLICENCIA DE DIAABM02:18:0023600:27:4928301:38:5912.1202:06:4823000:11:120:00:000:00:00
158 7089FERRAN VALLVERDÚ BLANCHLLICENCIA DE DIAABM02:18:0525000:28:1328701:39:1412.0902:07:2718300:10:380:00:000:00:00
159 7005ALBERT SANCHEZ JIMENEZLLICENCIA DE DIAABM02:18:1129100:29:5326301:35:3512.5502:05:2830100:12:430:00:000:00:00
160 2290FRANCISCO MANUEL AGUILAR CLUB TRIATLO BAIX MONTSENABM02:18:5326400:28:4329001:39:3112.0602:08:1418400:10:390:00:000:00:00
161 4854DAVID LAPEÑA BOUC.N. CASTELLET TRIATLÓABM02:19:0232300:32:0625601:33:3712.8202:05:4331000:13:190:00:000:00:00
162 6264JOSE JAVIER PULIDOLLICENCIA DE DIAABM02:19:0528100:29:1626401:35:5412.5102:05:1031800:13:550:00:000:00:00
163 5985MANEL MUÑOZ PINTADOCERCLES SABADELLES 1856ABM02:19:0623900:27:5229401:40:0711.9902:07:5922500:11:070:00:000:00:00
164 6242ENRIQUE BOZA VALVERDELLICENCIA DE DIAABM02:19:1627700:29:1027701:38:0412.2402:07:1428300:12:020:00:000:00:00
165 6222JAVIER FERNÁNDEZ DELGADOLLICENCIA DE DIAABM02:20:2428700:29:4426801:36:0312.4902:05:4732300:14:370:00:000:00:00
166 7017DANIEL RIU AROMILLICENCIA DE DIAABM02:21:3131900:31:3627301:37:2412.3202:09:0029800:12:310:00:000:00:00
167 6289JUAN ANTONIO LOZANO ROMERLLICENCIA DE DIAABM02:21:3430800:30:2128801:39:1512.0902:09:3628100:11:580:00:000:00:00
168 6229JOSE ANTONIO ALBARRAL MARLLICENCIA DE DIAABM02:21:5027800:29:1230101:41:0411.8702:10:1625400:11:340:00:000:00:00
169 6234DAVID IZQUIERDO DOMINGOLLICENCIA DE DIAABM02:22:5728000:29:1330401:41:5111.7802:11:0427800:11:530:00:000:00:00
170 6232RAMÓN MOLINA GONZÁLEZLLICENCIA DE DIAABM02:23:1832600:32:5627501:37:5112.2602:10:4729700:12:310:00:000:00:00
171 5994DANIEL GARCIA ORTIGATRIATLO TERRASSASPORTS-CIABM02:24:5431400:31:1128201:38:4512.1502:09:5632400:14:580:00:000:00:00
172 7011JORDI MARTIN IBAÑEZLLICENCIA DE DIAABM02:26:4930500:30:1230501:42:1911.7302:12:3132100:14:180:00:000:00:00
173 6252GOKU CALDERON LOPEZLLICENCIA DE DIAABM02:27:1232000:31:4728401:39:0512.1102:10:5232800:16:200:00:000:00:00
174 6210IVAN CAMPILLO ALVAREZLLICENCIA DE DIAABM02:28:2031700:31:2830801:43:5211.5502:15:2030700:13:000:00:000:00:00
175 7065JONATHAN MARÍN DEL RÍOLLICENCIA DE DIAABM02:30:3832200:32:0631601:46:2311.2802:18:2928900:12:090:00:000:00:00
176 6228DANIEL SANCHEZ BARRINOUEVLLICENCIA DE DIAABM02:31:0631200:30:5532401:48:4511.0302:19:4024600:11:260:00:000:00:00
177 7020ALBERT VALLS MARROQUÍLLICENCIA DE DIAABM02:32:2430900:30:2831501:46:2111.2802:16:4932700:15:350:00:000:00:00
178 7057DAVID ZURDO CUENCALLICENCIA DE DIAABM02:32:4627100:28:5533001:52:2710.6702:21:2224300:11:240:00:000:00:00
179 6216SERGIO MATIAS RUIZ LINARELLICENCIA DE DIAABM02:33:2032700:32:5731401:45:0211.4202:17:5932500:15:210:00:000:00:00
180 6270ALEX PEREZ RAMIREZLLICENCIA DE DIAABM02:33:3932900:33:0732001:47:4911.1302:20:5630000:12:430:00:000:00:00
181 5958JORDI AMAYA BARBEINDEPENDENTABM02:34:4524900:28:1332801:50:0810.9002:18:2132900:16:240:00:000:00:00
182 5957JAVIER CASTAN ROMEROINDEPENDENTABM02:34:4625200:28:1432601:49:4210.9402:17:5633000:16:500:00:000:00:00
CATEGORIA: ABF
LLOCDORSALNOMCLUBCAT.T.META| P.Tram 1 || P.Tram 2 |Km/hTEMPS| P.Tram 3 |PARC_1PARC_2
1 82MERCE TUSELL QUEVEDOC.N. REUS PLOMSABF01:44:308500:24:037601:11:1716.8301:35:205900:09:100:00:000:00:00
2 77MARIONA CATEDRA FERRANDOC.T.S.J. ABADESSESABF01:51:5714800:25:3911501:15:4015.8601:41:1918200:10:380:00:000:00:00
3 5138LAURA TERRADAS ILLC.N. PRAT-TRIATLOABF01:53:5119100:26:3712001:16:5415.6001:43:3116100:10:200:00:000:00:00
4 5146NURIA FERRER CRUSELLESC.N. REUS PLOMSABF01:59:3520900:27:0614801:21:4814.6701:48:5418600:10:410:00:000:00:00
5 4088AINA PICAS ZORRILLACLUB TRIATLO LLUÇANESABF02:02:1522500:27:3417101:24:1014.2601:51:4417400:10:310:00:000:00:00
6 1952MONTSE OLIVEROS OLIVEROSC. TRI. GRANOLLERSABF02:08:0627600:29:0720301:27:2113.7401:56:2826000:11:380:00:000:00:00
7 5156IRENE MARTINEZ DOMENECHDISTANCE LA SALLEABF02:10:5032500:32:1319101:26:0513.9401:58:1829900:12:320:00:000:00:00
8 5158MONTSE MASIP ARAGONESCLUB TRIATLÓ LLEIDA ABF02:16:4331100:30:3925801:34:1912.7202:04:5826800:11:450:00:000:00:00
9 5155FRANCESCA PONS BENAGAM C.T. S.J. ABADESSESABF02:17:2921100:27:0729701:40:2311.9502:07:3012400:09:590:00:000:00:00
10 6220EMMA ANDERSON CRYNSLLICENCIA DE DIAABF02:18:0723800:27:5028101:38:4312.1602:06:3325300:11:340:00:000:00:00
11 5161LAURA LOPEZ CABRERAC.N. REUS PLOMSABF02:19:3326900:28:5228901:39:1712.0902:08:0924400:11:240:00:000:00:00
12 6277PAULA CAVALIERI OREZZILLICENCIA DE DIAABF02:22:0722300:27:3031001:44:1811.5102:11:4816000:10:190:00:000:00:00
13 70NEUS ESTRANY RIERAC. TRI. GRANOLLERSABF02:22:1931600:31:2629101:39:5012.0202:11:1621600:11:030:00:000:00:00
14 1964ANNA CLARET BUENOC.T. S.J. ABADESSESABF02:22:4630600:30:1530001:40:4611.9102:11:0126700:11:450:00:000:00:00
15 120LESLIE VIOLIC.N. REUS PLOMSABF02:26:4829800:30:0031301:44:5111.4402:14:5128000:11:570:00:000:00:00

FEDERACIÓ CATALANA DE TRIATLÓ
SEU CENTRAL I CORRESPONDÈNCIA: Rambla Guipúscoa 23-25 2on-D · 08018 Barcelona · Tel / Fax : 93 307 93 35
ATENCIÓ AL PÚBLIC: Passeig Joan de Borbó, 93 (Club Natació Barcelona) · 08039 Barcelona · Tel / Fax : 93 307 93 32